Time;durP1;ratioP1;P1;durP2;ratioP2;P2;SDS_P1;SDS_P2;PMS_P1;PMS_P2;Temp;Humidity;BMP_temperature;BMP_pressure;BME280_temperature;BME280_humidity;BME280_pressure;Samples;Min_cycle;Max_cycle;Signal;HPM_P1;HPM_P2
2023/05/18 00:00:44;;;;;;;4.13;2.03;;;6.80;99.90;;;;;;5052909;28;20052;-57
2023/05/18 00:03:10;;;;;;;4.10;1.88;;;6.80;99.90;;;;;;5054651;28;20380;-57
2023/05/18 00:05:35;;;;;;;8.07;1.52;;;6.80;99.90;;;;;;5050226;28;20466;-56
2023/05/18 00:08:01;;;;;;;5.75;1.58;;;6.80;99.90;;;;;;5054679;28;20028;-55
2023/05/18 00:10:27;;;;;;;5.13;1.77;;;6.80;99.90;;;;;;5053314;28;20533;-57
2023/05/18 00:12:53;;;;;;;4.78;1.73;;;6.80;99.90;;;;;;5053732;28;20060;-51
2023/05/18 00:15:19;;;;;;;8.10;1.58;;;6.80;99.90;;;;;;5053612;28;20033;-56
2023/05/18 00:17:44;;;;;;;5.85;2.22;;;6.80;99.90;;;;;;5053823;28;20055;-55
2023/05/18 00:20:10;;;;;;;8.75;2.15;;;6.80;99.90;;;;;;5053164;28;20029;-55
2023/05/18 00:22:38;;;;;;;6.95;2.25;;;6.70;99.90;;;;;;5034778;28;20390;-54
2023/05/18 00:25:03;;;;;;;4.20;1.80;;;6.80;99.90;;;;;;5036291;28;20050;-52
2023/05/18 00:27:30;;;;;;;7.97;1.80;;;6.70;99.90;;;;;;5054373;28;20028;-53
2023/05/18 00:29:55;;;;;;;10.27;2.65;;;6.70;99.90;;;;;;5054198;28;20439;-53
2023/05/18 00:32:21;;;;;;;7.53;1.80;;;6.70;99.90;;;;;;5053330;28;20119;-53
2023/05/18 00:34:46;;;;;;;3.22;1.50;;;6.70;99.90;;;;;;5053033;28;20503;-55
2023/05/18 00:37:12;;;;;;;3.90;1.75;;;6.70;99.90;;;;;;5053999;28;20407;-55
2023/05/18 00:39:37;;;;;;;5.90;2.25;;;6.70;99.90;;;;;;5052503;28;20024;-56
2023/05/18 00:42:03;;;;;;;4.57;1.63;;;6.70;99.90;;;;;;5019162;28;20055;-57
2023/05/18 00:44:29;;;;;;;5.80;2.28;;;6.60;99.90;;;;;;5054420;28;20339;-56
2023/05/18 00:46:55;;;;;;;5.18;1.92;;;6.60;99.90;;;;;;5053937;28;20635;-56
2023/05/18 00:49:20;;;;;;;5.72;2.17;;;6.60;99.90;;;;;;5052070;28;20021;-56
2023/05/18 00:51:46;;;;;;;3.83;1.65;;;6.50;99.90;;;;;;5057189;28;20024;-55
2023/05/18 00:54:13;;;;;;;6.18;2.10;;;6.50;99.90;;;;;;5055999;28;20028;-54
2023/05/18 00:56:45;;;;;;;6.00;1.65;;;6.50;99.90;;;;;;5057571;28;20111;-52
2023/05/18 00:59:11;;;;;;;7.05;1.95;;;6.50;99.90;;;;;;5038820;28;20386;-50
2023/05/18 01:01:42;;;;;;;4.28;2.00;;;6.50;99.90;;;;;;5036200;28;20040;-52
2023/05/18 01:04:08;;;;;;;9.77;1.98;;;6.50;99.90;;;;;;5056608;28;20051;-55
2023/05/18 01:06:34;;;;;;;3.97;1.77;;;6.40;99.90;;;;;;5057445;28;20471;-56
2023/05/18 01:09:05;;;;;;;6.43;2.20;;;6.40;99.90;;;;;;5057632;28;20019;-56
2023/05/18 01:11:49;;;;;;;5.00;1.90;;;6.40;99.90;;;;;;5057065;28;20107;-55
2023/05/18 01:14:17;;;;;;;2.45;1.60;;;6.30;99.90;;;;;;5039669;28;20028;-52
2023/05/18 01:17:16;;;;;;;5.00;2.28;;;6.30;99.90;;;;;;5057124;28;20032;-56
2023/05/18 01:20:23;;;;;;;4.95;1.73;;;6.20;99.90;;;;;;5057842;28;20047;-54
2023/05/18 01:23:24;;;;;;;8.00;2.08;;;6.20;99.90;;;;;;5043545;28;20061;-55
2023/05/18 01:25:52;;;;;;;6.38;2.08;;;6.20;99.90;;;;;;5057158;28;20108;-54
2023/05/18 01:28:25;;;;;;;6.68;2.17;;;6.20;99.90;;;;;;5055887;28;20029;-54
2023/05/18 01:30:52;;;;;;;7.25;2.08;;;6.10;99.90;;;;;;5056074;28;20064;-54
2023/05/18 01:33:18;;;;;;;5.18;2.03;;;6.00;99.90;;;;;;5056730;28;20048;-53
2023/05/18 01:35:46;;;;;;;7.70;2.78;;;6.00;99.90;;;;;;5056956;28;20044;-55
2023/05/18 01:38:14;;;;;;;3.47;1.48;;;6.00;99.90;;;;;;5056428;28;20487;-54
2023/05/18 01:41:18;;;;;;;7.13;1.75;;;5.90;99.90;;;;;;5057440;28;20025;-56
2023/05/18 01:43:55;;;;;;;6.07;1.73;;;5.90;99.90;;;;;;5056692;28;20013;-57
2023/05/18 01:46:24;;;;;;;;;;;5.90;99.90;;;;;;5055314;28;20020;-52
2023/05/18 01:48:57;;;;;;;6.25;2.58;;;5.90;99.90;;;;;;5057563;28;19915;-56
2023/05/18 01:51:28;;;;;;;5.07;2.15;;;5.80;99.90;;;;;;5055759;28;20036;-52
2023/05/18 01:54:03;;;;;;;9.13;1.95;;;5.80;99.90;;;;;;5054843;28;20475;-52
2023/05/18 01:56:30;;;;;;;6.57;1.77;;;5.80;99.90;;;;;;5020725;28;21173;-54
2023/05/18 01:58:57;;;;;;;3.97;1.92;;;5.70;99.90;;;;;;5056121;28;20031;-55
2023/05/18 02:01:23;;;;;;;4.57;1.95;;;5.70;99.90;;;;;;5037392;28;20125;-54
2023/05/18 02:03:50;;;;;;;5.72;1.98;;;5.70;99.90;;;;;;5055326;28;20478;-54
2023/05/18 02:06:15;;;;;;;4.68;1.90;;;5.80;99.90;;;;;;5056399;28;20025;-54
2023/05/18 02:08:42;;;;;;;8.15;2.15;;;5.70;99.90;;;;;;5056277;28;20028;-56
2023/05/18 02:11:07;;;;;;;8.95;2.83;;;5.80;99.90;;;;;;5076589;23;20037;-50
2023/05/18 02:13:33;;;;;;;5.45;1.98;;;5.80;99.90;;;;;;5055566;28;20051;-53
2023/05/18 02:15:58;;;;;;;5.13;2.40;;;5.80;99.90;;;;;;5055752;28;20013;-50
2023/05/18 02:18:26;;;;;;;10.95;2.45;;;5.80;99.90;;;;;;5054807;28;20024;-53
2023/05/18 02:21:01;;;;;;;6.75;2.45;;;5.80;99.90;;;;;;5055233;28;20045;-51
2023/05/18 02:23:27;;;;;;;6.32;2.10;;;5.80;99.90;;;;;;5055061;28;20493;-51
2023/05/18 02:25:55;;;;;;;3.05;1.85;;;5.80;99.90;;;;;;5055547;28;20116;-55
2023/05/18 02:28:22;;;;;;;4.28;1.73;;;5.80;99.90;;;;;;5055198;28;20395;-53
2023/05/18 02:30:48;;;;;;;8.52;2.17;;;5.80;99.90;;;;;;5054560;28;20139;-51
2023/05/18 02:33:13;;;;;;;9.63;2.45;;;5.80;99.90;;;;;;5055436;28;20127;-52
2023/05/18 02:35:39;;;;;;;5.05;2.42;;;5.80;99.90;;;;;;5055729;28;20390;-51
2023/05/18 02:38:06;;;;;;;5.38;2.13;;;5.80;99.90;;;;;;5055425;28;20130;-52
2023/05/18 02:40:31;;;;;;;5.82;1.67;;;5.80;99.90;;;;;;5054647;28;20112;-50
2023/05/18 02:42:57;;;;;;;5.82;2.08;;;5.80;99.90;;;;;;5055411;28;20146;-50
2023/05/18 02:45:22;;;;;;;9.40;2.42;;;5.80;99.90;;;;;;5054691;28;20141;-51
2023/05/18 02:47:48;;;;;;;6.28;2.15;;;5.90;99.90;;;;;;5052637;28;20056;-51
2023/05/18 02:50:14;;;;;;;8.98;2.00;;;5.80;99.90;;;;;;5055568;28;20032;-53
2023/05/18 02:52:40;;;;;;;4.55;2.03;;;5.80;99.90;;;;;;5056443;28;20479;-51
2023/05/18 02:55:06;;;;;;;6.93;2.30;;;5.80;99.90;;;;;;5054153;28;20570;-51
2023/05/18 02:57:32;;;;;;;5.28;2.10;;;5.90;99.90;;;;;;5053320;28;20128;-50
2023/05/18 02:59:58;;;;;;;9.35;2.17;;;5.90;99.90;;;;;;5053430;28;20025;-49
2023/05/18 03:02:23;;;;;;;3.97;1.77;;;5.90;99.90;;;;;;5052739;28;20105;-49
2023/05/18 03:04:56;;;;;;;6.32;1.60;;;5.90;99.90;;;;;;5035674;28;20033;-49
2023/05/18 03:07:22;;;;;;;4.03;1.77;;;5.90;99.90;;;;;;5053901;28;20031;-53
2023/05/18 03:09:48;;;;;;;8.70;2.17;;;5.90;99.90;;;;;;5054966;28;20406;-50
2023/05/18 03:12:13;;;;;;;5.93;2.08;;;5.90;99.90;;;;;;5055444;28;20118;-50
2023/05/18 03:14:39;;;;;;;7.65;1.95;;;5.90;99.90;;;;;;5052868;28;20121;-51
2023/05/18 03:17:05;;;;;;;5.80;2.15;;;5.90;99.90;;;;;;5035298;28;20127;-53
2023/05/18 03:19:31;;;;;;;8.20;2.63;;;5.90;99.90;;;;;;5054403;28;20521;-51
2023/05/18 03:21:57;;;;;;;7.78;2.53;;;5.90;99.90;;;;;;5053894;28;20031;-50
2023/05/18 03:24:25;;;;;;;6.68;1.65;;;6.00;99.90;;;;;;5054191;28;20025;-51
2023/05/18 03:26:52;;;;;;;3.83;1.63;;;6.00;99.90;;;;;;5054629;28;20048;-52
2023/05/18 03:29:19;;;;;;;9.10;1.85;;;6.00;99.90;;;;;;5052640;28;20154;-54
2023/05/18 03:31:44;;;;;;;4.97;1.77;;;6.00;99.90;;;;;;5054021;28;20403;-51
2023/05/18 03:34:10;;;;;;;4.22;2.33;;;6.00;99.90;;;;;;5053955;28;20024;-50
2023/05/18 03:36:37;;;;;;;5.95;1.95;;;6.00;99.90;;;;;;5054119;28;20036;-49
2023/05/18 03:39:05;;;;;;;6.88;1.35;;;6.00;99.90;;;;;;5052970;28;20116;-52
2023/05/18 03:41:31;;;;;;;5.20;1.85;;;6.10;99.90;;;;;;5053755;28;20093;-52
2023/05/18 03:43:57;;;;;;;2.40;1.63;;;6.10;99.90;;;;;;5053178;28;20498;-53
2023/05/18 03:46:23;;;;;;;5.50;1.85;;;6.10;99.90;;;;;;5053612;28;20024;-51
2023/05/18 03:48:48;;;;;;;7.60;2.28;;;6.10;99.90;;;;;;5054412;28;20029;-51
2023/05/18 03:51:14;;;;;;;6.03;2.17;;;6.10;99.90;;;;;;5053744;28;20048;-53
2023/05/18 03:53:41;;;;;;;6.05;1.95;;;6.20;99.90;;;;;;5052956;28;20515;-50
2023/05/18 03:56:07;;;;;;;4.43;1.73;;;6.20;99.90;;;;;;5053821;28;20051;-49
2023/05/18 03:58:32;;;;;;;5.15;1.80;;;6.20;99.90;;;;;;5052287;28;20490;-49
2023/05/18 04:00:59;;;;;;;6.22;1.70;;;6.20;99.90;;;;;;5052611;28;20044;-51
2023/05/18 04:03:25;;;;;;;8.55;1.65;;;6.30;99.90;;;;;;5036108;28;20355;-50
2023/05/18 04:05:52;;;;;;;6.70;1.95;;;6.30;99.90;;;;;;5053438;28;20051;-49
2023/05/18 04:08:18;;;;;;;4.65;1.42;;;6.30;99.90;;;;;;5054517;28;20036;-51
2023/05/18 04:10:44;;;;;;;1.98;1.30;;;6.30;99.90;;;;;;5051622;28;20048;-51
2023/05/18 04:13:10;;;;;;;4.20;1.80;;;6.30;99.90;;;;;;5052900;28;20037;-51
2023/05/18 04:15:36;;;;;;;8.63;2.30;;;6.40;99.90;;;;;;5055504;28;20418;-50
2023/05/18 04:18:06;;;;;;;7.68;1.73;;;6.40;99.90;;;;;;5053989;28;20111;-53
2023/05/18 04:20:32;;;;;;;5.20;1.70;;;6.40;99.90;;;;;;5052661;28;20471;-51
2023/05/18 04:22:58;;;;;;;8.10;2.33;;;6.40;99.90;;;;;;5052610;28;20091;-54
2023/05/18 04:25:26;;;;;;;4.88;1.33;;;6.50;99.90;;;;;;5054671;28;20024;-49
2023/05/18 04:27:53;;;;;;;7.55;2.15;;;6.50;99.90;;;;;;5056679;28;20117;-50
2023/05/18 04:30:21;;;;;;;6.63;1.45;;;6.50;99.90;;;;;;5055736;28;20040;-51
2023/05/18 04:32:47;;;;;;;7.97;2.13;;;6.60;99.90;;;;;;5058805;28;20024;-53
2023/05/18 04:35:12;;;;;;;5.07;2.05;;;6.50;99.90;;;;;;5057345;28;20040;-53
2023/05/18 04:37:39;;;;;;;8.00;2.08;;;6.60;99.90;;;;;;5056872;28;20554;-50
2023/05/18 04:40:12;;;;;;;5.28;2.25;;;6.60;99.90;;;;;;5056523;28;20027;-52
2023/05/18 04:42:44;;;;;;;6.53;2.03;;;6.60;99.90;;;;;;5057325;28;20028;-49
2023/05/18 04:45:11;;;;;;;6.50;1.58;;;6.70;99.90;;;;;;5057501;28;20530;-49
2023/05/18 04:47:37;;;;;;;7.28;2.30;;;6.70;99.90;;;;;;5056674;28;20017;-51
2023/05/18 04:50:04;;;;;;;8.02;1.92;;;6.70;99.90;;;;;;5056965;28;20028;-50
2023/05/18 04:52:30;;;;;;;7.63;2.03;;;6.70;99.90;;;;;;5038887;28;20107;-50
2023/05/18 04:54:55;;;;;;;3.58;1.35;;;6.80;99.90;;;;;;5056746;28;20135;-49
2023/05/18 04:57:21;;;;;;;3.42;1.98;;;6.90;99.90;;;;;;5056146;28;20273;-50
2023/05/18 04:59:46;;;;;;;4.25;1.98;;;6.90;99.90;;;;;;5057528;28;20033;-51
2023/05/18 05:02:13;;;;;;;6.60;2.05;;;6.90;99.90;;;;;;5037797;28;20037;-50
2023/05/18 05:04:38;;;;;;;4.10;1.85;;;6.90;99.90;;;;;;5055214;28;20041;-50
2023/05/18 05:07:04;;;;;;;7.50;1.65;;;6.90;99.90;;;;;;5056829;28;20017;-53
2023/05/18 05:09:29;;;;;;;4.10;1.80;;;7.00;99.90;;;;;;5056137;28;20061;-51
2023/05/18 05:11:55;;;;;;;6.85;2.20;;;7.10;99.90;;;;;;5056062;28;20033;-49
2023/05/18 05:14:20;;;;;;;5.95;1.95;;;7.10;99.90;;;;;;5056360;28;20493;-50
2023/05/18 05:16:46;;;;;;;7.13;1.98;;;7.20;99.90;;;;;;5056209;28;20024;-49
2023/05/18 05:19:11;;;;;;;9.77;2.05;;;7.20;99.90;;;;;;5054039;28;20036;-53
2023/05/18 05:21:37;;;;;;;5.80;1.80;;;7.20;99.90;;;;;;5054153;28;20028;-49
2023/05/18 05:24:04;;;;;;;5.57;1.95;;;7.30;99.90;;;;;;5055257;28;20039;-53
2023/05/18 05:26:30;;;;;;;8.48;1.85;;;7.30;99.90;;;;;;5055435;28;20028;-49
2023/05/18 05:28:55;;;;;;;4.72;1.90;;;7.20;99.90;;;;;;5056642;28;20102;-49
2023/05/18 05:31:21;;;;;;;9.15;1.40;;;7.20;99.90;;;;;;5055378;28;20037;-52
2023/05/18 05:33:46;;;;;;;5.82;1.45;;;7.30;99.90;;;;;;5037161;28;20035;-51
2023/05/18 05:36:12;;;;;;;4.03;1.52;;;7.30;99.90;;;;;;5056929;28;20029;-51
2023/05/18 05:38:38;;;;;;;3.15;1.38;;;7.30;99.90;;;;;;5053548;28;20040;-50
2023/05/18 05:41:03;;;;;;;9.20;1.83;;;7.40;99.90;;;;;;5055336;28;20490;-50
2023/05/18 05:43:29;;;;;;;5.30;1.95;;;7.40;99.90;;;;;;5055575;28;20033;-49
2023/05/18 05:45:54;;;;;;;7.30;2.17;;;7.40;99.90;;;;;;5057090;28;20024;-51
2023/05/18 05:48:20;;;;;;;8.88;1.77;;;7.30;99.90;;;;;;5055565;28;20452;-56
2023/05/18 05:50:46;;;;;;;4.57;1.70;;;7.40;99.90;;;;;;5057113;28;20031;-54
2023/05/18 05:53:11;;;;;;;7.85;1.60;;;7.60;99.90;;;;;;5055770;28;20021;-51
2023/05/18 05:55:40;;;;;;;10.02;2.58;;;7.60;99.90;;;;;;5055008;28;20563;-51
2023/05/18 05:58:06;;;;;;;6.53;1.60;;;7.60;99.90;;;;;;5055084;28;20425;-53
2023/05/18 06:00:31;;;;;;;6.68;2.50;;;7.80;99.90;;;;;;5055744;28;20033;-53
2023/05/18 06:02:58;;;;;;;2.92;1.10;;;7.90;99.90;;;;;;5053989;28;20021;-52
2023/05/18 06:05:23;;;;;;;7.65;2.25;;;7.90;99.90;;;;;;5055871;28;20441;-55
2023/05/18 06:07:49;;;;;;;4.90;1.50;;;7.90;99.90;;;;;;5054579;28;20021;-53
2023/05/18 06:10:14;;;;;;;5.90;1.50;;;7.90;99.90;;;;;;5054355;28;20158;-54
2023/05/18 06:12:40;;;;;;;4.45;1.77;;;7.90;99.90;;;;;;5053853;28;20595;-50
2023/05/18 06:15:06;;;;;;;5.60;1.63;;;8.00;99.90;;;;;;5055570;28;20315;-51
2023/05/18 06:17:32;;;;;;;8.52;1.40;;;8.00;99.90;;;;;;5053398;28;20118;-51
2023/05/18 06:19:58;;;;;;;10.50;1.90;;;8.00;99.90;;;;;;5054187;28;20062;-52
2023/05/18 06:22:24;;;;;;;10.25;1.77;;;8.10;99.90;;;;;;5055366;28;20117;-51
2023/05/18 06:24:50;;;;;;;10.68;2.10;;;8.00;99.90;;;;;;5054633;28;20017;-51
2023/05/18 06:27:16;;;;;;;4.50;1.38;;;8.00;99.90;;;;;;5053251;28;20199;-51
2023/05/18 06:29:41;;;;;;;5.13;1.52;;;8.10;99.90;;;;;;5052316;28;20137;-50
2023/05/18 06:32:07;;;;;;;10.68;2.15;;;8.10;99.90;;;;;;5055535;28;20135;-53
2023/05/18 06:34:32;;;;;;;6.18;1.30;;;8.20;99.90;;;;;;5053325;28;20017;-52
2023/05/18 06:36:58;;;;;;;6.13;1.83;;;8.30;99.90;;;;;;5037484;28;20107;-54
2023/05/18 06:39:24;;;;;;;5.57;1.65;;;8.20;99.90;;;;;;5054787;28;20024;-54
2023/05/18 06:41:50;;;;;;;8.13;2.17;;;8.20;99.90;;;;;;5054798;28;20024;-54
2023/05/18 06:44:16;;;;;;;2.83;1.58;;;8.20;99.90;;;;;;5055323;28;20035;-52
2023/05/18 06:46:42;;;;;;;8.90;1.50;;;8.30;99.90;;;;;;5055318;28;20028;-49
2023/05/18 06:49:08;;;;;;;2.88;1.80;;;8.30;99.90;;;;;;5054869;28;20029;-51
2023/05/18 06:51:33;;;;;;;2.88;1.15;;;8.50;99.90;;;;;;5054486;28;20024;-50
2023/05/18 06:53:59;;;;;;;3.38;1.52;;;8.50;99.90;;;;;;5054130;28;20032;-53
2023/05/18 06:56:25;;;;;;;2.38;2.05;;;8.60;99.90;;;;;;5054490;28;20029;-53
2023/05/18 06:58:50;;;;;;;9.32;2.05;;;8.60;99.90;;;;;;5054795;28;20462;-53
2023/05/18 07:01:19;;;;;;;4.68;1.45;;;8.80;99.90;;;;;;5053884;28;20032;-53
2023/05/18 07:03:45;;;;;;;7.13;1.92;;;8.90;99.90;;;;;;5053932;28;20285;-50
2023/05/18 07:06:10;;;;;;;3.92;1.63;;;8.90;99.90;;;;;;5054407;28;20347;-51
2023/05/18 07:08:36;;;;;;;4.13;1.27;;;8.90;99.90;;;;;;5053840;28;20355;-52
2023/05/18 07:11:03;;;;;;;5.65;1.40;;;8.90;99.90;;;;;;5054413;28;20029;-51
2023/05/18 07:13:28;;;;;;;8.50;2.15;;;9.00;99.90;;;;;;5055037;28;20029;-52
2023/05/18 07:15:54;;;;;;;4.53;1.75;;;9.10;99.90;;;;;;5055564;28;20038;-50
2023/05/18 07:18:20;;;;;;;6.82;1.70;;;9.10;99.90;;;;;;5054261;28;20407;-50
2023/05/18 07:20:45;;;;;;;3.72;1.73;;;9.10;99.90;;;;;;5053179;28;20028;-49
2023/05/18 07:23:12;;;;;;;2.97;1.30;;;9.30;99.90;;;;;;5051887;28;20050;-49
2023/05/18 07:25:38;;;;;;;5.35;1.73;;;9.20;99.90;;;;;;5053642;28;20032;-53
2023/05/18 07:28:07;;;;;;;6.22;1.85;;;9.10;99.90;;;;;;5054344;28;20021;-50
2023/05/18 07:30:33;;;;;;;4.40;1.45;;;9.00;99.90;;;;;;5033196;28;20071;-50
2023/05/18 07:32:58;;;;;;;9.52;2.10;;;8.90;99.90;;;;;;5054835;28;20044;-49
2023/05/18 07:35:25;;;;;;;8.90;1.70;;;8.90;99.90;;;;;;5052737;28;20026;-50
2023/05/18 07:37:52;;;;;;;7.82;2.45;;;8.90;99.90;;;;;;5053449;28;20023;-49
2023/05/18 07:40:18;;;;;;;7.68;1.73;;;9.10;99.90;;;;;;5054374;28;20057;-50
2023/05/18 07:42:44;;;;;;;11.70;2.13;;;9.20;99.90;;;;;;5053485;28;20016;-51
2023/05/18 07:45:10;;;;;;;2.22;1.40;;;9.20;99.90;;;;;;5053373;28;20025;-49
2023/05/18 07:47:36;;;;;;;3.70;1.40;;;9.20;99.90;;;;;;5052516;28;20025;-49
2023/05/18 07:50:01;;;;;;;5.35;1.58;;;9.20;99.90;;;;;;5054135;28;20348;-49
2023/05/18 07:52:27;;;;;;;4.38;1.50;;;9.60;99.90;;;;;;5055077;28;20454;-49
2023/05/18 07:54:56;;;;;;;4.07;1.40;;;10.10;99.90;;;;;;5052932;28;20104;-49
2023/05/18 07:57:21;;;;;;;4.80;1.55;;;10.50;98.90;;;;;;5053387;28;20063;-51
2023/05/18 07:59:47;;;;;;;4.50;1.60;;;11.00;98.80;;;;;;5052088;28;20044;-50
2023/05/18 08:02:15;;;;;;;6.25;1.83;;;11.50;99.20;;;;;;5056837;28;20510;-52
2023/05/18 08:04:41;;;;;;;4.32;1.45;;;11.80;96.90;;;;;;5057859;28;20463;-49
2023/05/18 08:07:07;;;;;;;4.13;1.63;;;11.90;95.20;;;;;;5058909;28;20104;-50
2023/05/18 08:09:33;;;;;;;4.47;1.58;;;12.00;97.00;;;;;;5057800;28;20037;-52
2023/05/18 08:11:59;;;;;;;9.13;1.85;;;12.10;96.20;;;;;;5079893;23;20048;-53
2023/05/18 08:14:25;;;;;;;3.28;1.50;;;12.40;96.90;;;;;;5057549;28;20541;-56
2023/05/18 08:16:50;;;;;;;4.90;1.75;;;12.50;95.30;;;;;;5058291;28;20029;-55
2023/05/18 08:19:16;;;;;;;7.30;1.48;;;12.30;94.20;;;;;;5062366;28;20112;-56
2023/05/18 08:21:42;;;;;;;6.15;1.63;;;12.20;97.00;;;;;;5056634;28;20067;-54
2023/05/18 08:24:08;;;;;;;4.50;1.58;;;12.00;95.40;;;;;;5057559;28;20404;-55
2023/05/18 08:26:34;;;;;;;7.85;1.88;;;11.80;93.80;;;;;;5057579;28;20517;-61
2023/05/18 08:29:00;;;;;;;3.17;1.50;;;11.60;94.40;;;;;;5058473;28;20052;-60
2023/05/18 08:31:25;;;;;;;5.88;1.65;;;11.40;94.40;;;;;;5057051;28;20499;-58
2023/05/18 08:33:51;;;;;;;8.30;2.08;;;11.30;95.10;;;;;;5057717;28;21243;-58
2023/05/18 08:36:16;;;;;;;3.80;1.20;;;11.10;94.80;;;;;;5057409;28;20064;-54
2023/05/18 08:38:42;;;;;;;9.23;2.25;;;11.50;95.70;;;;;;5058392;28;20699;-56
2023/05/18 08:41:25;;;;;;;7.30;2.03;;;12.00;96.10;;;;;;5055700;28;20504;-54
2023/05/18 08:44:10;;;;;;;6.97;1.75;;;12.50;96.70;;;;;;5055206;28;20560;-57
2023/05/18 08:46:41;;;;;;;3.47;1.42;;;13.10;95.30;;;;;;5056872;28;20099;-52
2023/05/18 08:49:09;;;;;;;3.13;1.38;;;13.60;94.20;;;;;;5058047;28;20044;-60
2023/05/18 08:51:35;;;;;;;6.85;2.47;;;13.40;90.60;;;;;;5057190;28;20025;-59
2023/05/18 08:54:04;;;;;;;4.97;1.48;;;13.20;91.40;;;;;;5056357;28;20025;-57
2023/05/18 08:56:32;;;;;;;5.10;1.90;;;13.20;91.30;;;;;;5057607;28;20056;-56
2023/05/18 08:58:58;;;;;;;8.25;1.40;;;13.40;91.70;;;;;;5056829;28;20053;-57
2023/05/18 09:01:27;;;;;;;4.57;1.88;;;13.50;91.80;;;;;;5055548;28;20043;-57
2023/05/18 09:03:56;;;;;;;5.20;1.70;;;13.60;92.00;;;;;;5056900;28;20025;-57
2023/05/18 09:06:23;;;;;;;4.85;1.63;;;13.50;92.90;;;;;;5054867;28;20611;-56
2023/05/18 09:08:51;;;;;;;5.32;1.63;;;13.50;92.40;;;;;;5056742;28;20107;-57
2023/05/18 09:11:18;;;;;;;4.13;1.50;;;13.40;92.70;;;;;;5055078;28;20455;-58
2023/05/18 09:13:43;;;;;;;6.45;1.73;;;13.30;94.70;;;;;;5056076;28;20028;-58
2023/05/18 09:16:09;;;;;;;5.00;1.92;;;13.30;93.10;;;;;;5055974;28;20025;-55
2023/05/18 09:18:35;;;;;;;7.10;1.70;;;13.40;92.90;;;;;;5056896;28;20021;-57
2023/05/18 09:21:00;;;;;;;4.70;1.55;;;13.30;94.50;;;;;;5055620;28;20557;-56
2023/05/18 09:23:26;;;;;;;7.07;2.85;;;13.30;92.20;;;;;;5057368;28;20048;-58
2023/05/18 09:25:53;;;;;;;5.40;1.98;;;13.20;95.80;;;;;;5037873;28;20056;-57
2023/05/18 09:28:29;;;;;;;5.97;2.13;;;13.20;93.30;;;;;;5055067;28;20105;-58
2023/05/18 09:30:54;;;;;;;4.72;1.42;;;13.00;92.40;;;;;;5056384;28;20099;-57
2023/05/18 09:33:20;;;;;;;3.15;1.50;;;13.10;92.30;;;;;;5057702;28;20043;-58
2023/05/18 09:35:46;;;;;;;6.25;1.45;;;12.90;91.10;;;;;;5055440;28;20526;-58
2023/05/18 09:38:16;;;;;;;5.07;2.15;;;13.10;93.00;;;;;;5037689;28;20020;-58
2023/05/18 09:40:45;;;;;;;4.80;1.85;;;13.30;91.80;;;;;;5055970;28;20410;-55
2023/05/18 09:43:11;;;;;;;5.72;1.70;;;13.10;91.00;;;;;;5054758;28;20017;-59
2023/05/18 09:45:42;;;;;;;3.92;1.60;;;13.20;90.70;;;;;;5055078;28;20105;-59
2023/05/18 09:48:09;;;;;;;3.88;1.67;;;13.10;90.60;;;;;;5055158;28;20052;-57
2023/05/18 09:50:36;;;;;;;4.13;1.52;;;13.00;90.10;;;;;;5056340;28;20090;-58
2023/05/18 09:53:04;;;;;;;4.47;1.60;;;12.80;90.30;;;;;;5055484;28;20021;-57
2023/05/18 09:55:30;;;;;;;4.95;2.13;;;13.00;92.00;;;;;;5057256;28;20032;-56
2023/05/18 09:57:56;;;;;;;6.85;2.20;;;13.20;94.10;;;;;;5055102;28;20495;-56
2023/05/18 10:00:22;;;;;;;4.35;1.70;;;12.80;91.00;;;;;;5054630;28;20703;-56
2023/05/18 10:02:51;;;;;;;4.80;1.90;;;12.90;91.30;;;;;;5055241;28;20070;-56
2023/05/18 10:05:30;;;;;;;3.72;1.55;;;13.10;92.30;;;;;;5037790;28;20059;-54
2023/05/18 10:07:56;;;;;;;4.30;1.65;;;13.30;91.80;;;;;;5054371;28;20031;-57
2023/05/18 10:10:24;;;;;;;2.30;1.40;;;13.40;93.20;;;;;;5035507;28;20662;-59
2023/05/18 10:12:51;;;;;;;2.78;1.50;;;13.60;92.40;;;;;;5056036;28;20040;-57
2023/05/18 10:15:19;;;;;;;8.63;1.95;;;13.40;90.40;;;;;;5054410;28;20048;-58
2023/05/18 10:17:47;;;;;;;6.05;2.00;;;13.20;90.90;;;;;;5053959;28;20031;-54
2023/05/18 10:20:17;;;;;;;2.65;1.60;;;13.00;90.30;;;;;;5054050;28;20054;-58
2023/05/18 10:22:46;;;;;;;4.50;1.83;;;12.90;91.10;;;;;;5054422;28;20086;-59
2023/05/18 10:25:17;;;;;;;3.40;1.45;;;13.00;91.00;;;;;;5053006;28;20079;-58
2023/05/18 10:27:44;;;;;;;5.72;1.70;;;12.90;91.50;;;;;;5053932;28;20040;-58
2023/05/18 10:30:10;;;;;;;6.97;1.67;;;13.10;92.80;;;;;;5053521;28;20024;-58
2023/05/18 10:32:38;;;;;;;5.70;1.70;;;13.20;92.30;;;;;;5055862;28;20028;-58
2023/05/18 10:35:04;;;;;;;6.35;2.05;;;13.50;92.60;;;;;;5053682;28;20021;-59
2023/05/18 10:37:33;;;;;;;4.97;2.10;;;13.70;93.20;;;;;;5053434;28;20043;-57
2023/05/18 10:40:00;;;;;;;3.67;1.85;;;13.60;90.50;;;;;;5053993;28;20375;-58
2023/05/18 10:42:27;;;;;;;7.85;2.50;;;13.60;90.80;;;;;;5052575;28;20546;-55
2023/05/18 10:44:53;;;;;;;4.30;2.00;;;13.40;90.00;;;;;;5054168;28;20033;-58
2023/05/18 10:47:19;;;;;;;4.40;1.80;;;13.30;90.80;;;;;;5054927;28;20020;-57
2023/05/18 10:49:48;;;;;;;2.90;2.13;;;13.30;91.40;;;;;;5055346;28;20013;-60
2023/05/18 10:52:16;;;;;;;5.15;2.03;;;13.20;90.30;;;;;;5054674;28;20028;-56
2023/05/18 10:54:42;;;;;;;3.65;2.17;;;13.00;91.60;;;;;;5053498;28;20024;-58
2023/05/18 10:57:12;;;;;;;4.60;2.38;;;13.10;92.40;;;;;;5052657;28;20486;-56
2023/05/18 10:59:43;;;;;;;4.70;2.53;;;13.40;92.30;;;;;;5054176;28;20515;-57
2023/05/18 11:02:12;;;;;;;8.98;2.22;;;13.40;90.70;;;;;;5051688;28;20052;-57
2023/05/18 11:04:39;;;;;;;5.10;2.40;;;13.30;90.60;;;;;;5035111;28;20115;-57
2023/05/18 11:07:08;;;;;;;7.32;2.42;;;13.30;90.80;;;;;;5052082;28;20119;-58
2023/05/18 11:09:34;;;;;;;4.22;1.90;;;13.20;90.70;;;;;;5054572;28;20020;-56
2023/05/18 11:12:00;;;;;;;4.07;1.98;;;13.30;91.50;;;;;;5050905;28;20563;-61
2023/05/18 11:14:27;;;;;;;4.57;1.92;;;13.20;90.10;;;;;;5053022;28;20025;-60
2023/05/18 11:16:53;;;;;;;6.60;1.80;;;13.20;90.90;;;;;;5054525;28;20173;-59
2023/05/18 11:19:25;;;;;;;3.05;1.88;;;13.20;91.00;;;;;;5054131;28;20441;-56
2023/05/18 11:21:52;;;;;;;2.22;1.95;;;13.20;91.00;;;;;;5054096;28;20159;-59
2023/05/18 11:24:31;;;;;;;5.13;1.83;;;13.40;91.90;;;;;;5054234;28;20096;-58
2023/05/18 11:27:21;;;;;;;8.43;2.33;;;13.40;90.50;;;;;;5053803;28;20283;-57
2023/05/18 11:29:47;;;;;;;5.70;1.90;;;13.60;90.40;;;;;;5053151;28;20600;-54
2023/05/18 11:32:28;;;;;;;5.40;1.90;;;13.70;91.20;;;;;;5053502;28;20036;-58
2023/05/18 11:34:54;;;;;;;2.38;1.45;;;13.70;90.50;;;;;;5036019;28;20024;-58
2023/05/18 11:37:38;;;;;;;3.42;1.80;;;13.90;90.10;;;;;;5053012;28;20074;-57
2023/05/18 11:40:08;;;;;;;3.70;1.90;;;13.90;90.60;;;;;;5054933;28;20029;-57
2023/05/18 11:42:34;;;;;;;4.95;2.00;;;14.10;91.10;;;;;;5052584;28;20386;-57
2023/05/18 11:45:07;;;;;;;2.83;1.85;;;14.20;91.00;;;;;;5052929;28;20095;-57
2023/05/18 11:47:35;;;;;;;3.22;1.80;;;14.30;92.30;;;;;;5054337;28;20040;-58
2023/05/18 11:50:01;;;;;;;4.68;1.85;;;14.40;91.30;;;;;;5053086;28;20371;-60
2023/05/18 11:52:27;;;;;;;5.07;2.17;;;14.60;90.60;;;;;;5054179;28;20099;-57
2023/05/18 11:54:53;;;;;;;6.82;2.38;;;14.50;89.90;;;;;;5052466;28;20553;-56
2023/05/18 11:57:22;;;;;;;4.10;1.85;;;14.60;90.20;;;;;;5053508;28;20028;-55
2023/05/18 11:59:54;;;;;;;6.75;2.28;;;14.60;90.40;;;;;;5051988;28;20119;-56
2023/05/18 12:02:44;;;;;;;5.38;2.25;;;14.60;90.80;;;;;;5052846;28;20366;-58
2023/05/18 12:05:10;;;;;;;3.80;1.42;;;14.70;90.70;;;;;;5050844;28;20116;-57
2023/05/18 12:07:37;;;;;;;5.40;2.55;;;14.70;86.50;;;;;;5052100;28;20017;-59
2023/05/18 12:10:04;;;;;;;5.43;2.17;;;14.70;87.90;;;;;;5054914;28;20036;-55
2023/05/18 12:12:30;;;;;;;4.40;2.13;;;14.80;90.30;;;;;;5051515;28;20101;-60
2023/05/18 12:14:57;;;;;;;7.00;1.75;;;14.80;89.10;;;;;;5052661;28;20029;-57
2023/05/18 12:17:45;;;;;;;3.55;1.95;;;14.80;87.50;;;;;;5053395;28;20033;-62
2023/05/18 12:20:18;;;;;;;4.15;2.03;;;14.80;88.40;;;;;;5053030;28;20060;-59
2023/05/18 12:22:49;;;;;;;3.35;1.85;;;14.70;87.40;;;;;;5053145;28;20025;-56
2023/05/18 12:25:15;;;;;;;3.15;1.73;;;14.70;87.40;;;;;;5050135;28;20426;-58
2023/05/18 12:27:46;;;;;;;3.30;1.73;;;14.80;88.90;;;;;;5054665;28;20028;-58
2023/05/18 12:30:20;;;;;;;6.30;2.90;;;14.90;90.10;;;;;;5051956;28;20029;-59
2023/05/18 12:32:53;;;;;;;4.20;2.25;;;15.10;87.60;;;;;;5053267;28;20075;-60
2023/05/18 12:35:26;;;;;;;2.63;1.80;;;15.00;86.70;;;;;;5051332;28;20318;-60
2023/05/18 12:37:56;;;;;;;4.60;1.58;;;15.00;85.80;;;;;;5053129;28;20457;-59
2023/05/18 12:40:23;;;;;;;3.95;1.90;;;15.10;87.40;;;;;;5052398;28;20035;-58
2023/05/18 12:42:58;;;;;;;5.38;1.67;;;15.30;87.20;;;;;;5054290;28;20024;-55
2023/05/18 12:45:26;;;;;;;5.60;2.07;;;15.40;84.40;;;;;;5035458;28;20282;-59
2023/05/18 12:47:53;;;;;;;4.20;1.92;;;15.50;83.00;;;;;;5039043;28;20294;-58
2023/05/18 12:50:20;;;;;;;3.45;2.30;;;15.60;85.80;;;;;;5055800;28;20051;-62
2023/05/18 12:52:47;;;;;;;9.23;2.67;;;15.60;83.10;;;;;;5056987;28;20491;-57
2023/05/18 12:55:23;;;;;;;4.00;2.00;;;15.30;81.00;;;;;;5055536;28;20083;-59